sensor_id;sensor_type;location;lat;lon;timestamp;P1;durP1;ratioP1;P2;durP2;ratioP2
79566;SDS011;69030;48.126;7.816;2024-03-25T00:00:10;2.80;;;1.45;;
79566;SDS011;69030;48.126;7.816;2024-03-25T00:02:37;1.42;;;1.13;;
79566;SDS011;69030;48.126;7.816;2024-03-25T00:05:06;1.67;;;1.00;;
79566;SDS011;69030;48.126;7.816;2024-03-25T00:07:36;4.72;;;1.23;;
79566;SDS011;69030;48.126;7.816;2024-03-25T00:10:02;3.03;;;0.77;;
79566;SDS011;69030;48.126;7.816;2024-03-25T00:12:33;3.08;;;0.90;;
79566;SDS011;69030;48.126;7.816;2024-03-25T00:14:58;1.58;;;1.15;;
79566;SDS011;69030;48.126;7.816;2024-03-25T00:17:24;1.58;;;1.02;;
79566;SDS011;69030;48.126;7.816;2024-03-25T00:19:49;2.28;;;1.02;;
79566;SDS011;69030;48.126;7.816;2024-03-25T00:22:18;1.38;;;1.02;;
79566;SDS011;69030;48.126;7.816;2024-03-25T00:24:45;1.88;;;1.40;;
79566;SDS011;69030;48.126;7.816;2024-03-25T00:27:11;1.80;;;1.02;;
79566;SDS011;69030;48.126;7.816;2024-03-25T00:32:13;5.40;;;1.23;;
79566;SDS011;69030;48.126;7.816;2024-03-25T00:34:40;2.55;;;0.95;;
79566;SDS011;69030;48.126;7.816;2024-03-25T00:37:06;2.55;;;1.10;;
79566;SDS011;69030;48.126;7.816;2024-03-25T00:39:31;2.05;;;1.20;;
79566;SDS011;69030;48.126;7.816;2024-03-25T00:41:57;2.08;;;1.27;;
79566;SDS011;69030;48.126;7.816;2024-03-25T00:44:23;5.10;;;1.35;;
79566;SDS011;69030;48.126;7.816;2024-03-25T00:46:49;5.80;;;1.75;;
79566;SDS011;69030;48.126;7.816;2024-03-25T00:49:15;2.83;;;1.92;;
79566;SDS011;69030;48.126;7.816;2024-03-25T00:51:40;2.90;;;1.40;;
79566;SDS011;69030;48.126;7.816;2024-03-25T00:54:06;3.05;;;1.13;;
79566;SDS011;69030;48.126;7.816;2024-03-25T00:56:32;4.82;;;1.40;;
79566;SDS011;69030;48.126;7.816;2024-03-25T00:58:58;3.90;;;1.50;;
79566;SDS011;69030;48.126;7.816;2024-03-25T01:01:31;4.25;;;1.58;;
79566;SDS011;69030;48.126;7.816;2024-03-25T01:03:57;1.63;;;1.35;;
79566;SDS011;69030;48.126;7.816;2024-03-25T01:06:23;6.35;;;2.08;;
79566;SDS011;69030;48.126;7.816;2024-03-25T01:08:49;2.22;;;1.00;;
79566;SDS011;69030;48.126;7.816;2024-03-25T01:11:20;4.30;;;1.70;;
79566;SDS011;69030;48.126;7.816;2024-03-25T01:13:46;6.78;;;2.22;;
79566;SDS011;69030;48.126;7.816;2024-03-25T01:16:16;2.55;;;1.35;;
79566;SDS011;69030;48.126;7.816;2024-03-25T01:18:41;5.03;;;1.88;;
79566;SDS011;69030;48.126;7.816;2024-03-25T01:21:10;5.63;;;1.83;;
79566;SDS011;69030;48.126;7.816;2024-03-25T01:23:36;7.13;;;1.70;;
79566;SDS011;69030;48.126;7.816;2024-03-25T01:26:03;3.13;;;2.22;;
79566;SDS011;69030;48.126;7.816;2024-03-25T01:28:28;6.30;;;3.30;;
79566;SDS011;69030;48.126;7.816;2024-03-25T01:30:54;2.33;;;1.35;;
79566;SDS011;69030;48.126;7.816;2024-03-25T01:33:19;3.33;;;1.50;;
79566;SDS011;69030;48.126;7.816;2024-03-25T01:35:45;4.72;;;1.95;;
79566;SDS011;69030;48.126;7.816;2024-03-25T01:38:11;3.88;;;1.15;;
79566;SDS011;69030;48.126;7.816;2024-03-25T01:40:36;2.22;;;1.42;;
79566;SDS011;69030;48.126;7.816;2024-03-25T01:43:02;7.38;;;1.20;;
79566;SDS011;69030;48.126;7.816;2024-03-25T01:45:29;3.42;;;1.38;;
79566;SDS011;69030;48.126;7.816;2024-03-25T01:47:56;4.35;;;1.15;;
79566;SDS011;69030;48.126;7.816;2024-03-25T01:50:33;3.25;;;1.30;;
79566;SDS011;69030;48.126;7.816;2024-03-25T01:53:00;4.20;;;2.03;;
79566;SDS011;69030;48.126;7.816;2024-03-25T01:55:27;2.75;;;1.20;;
79566;SDS011;69030;48.126;7.816;2024-03-25T01:57:54;3.50;;;1.60;;
79566;SDS011;69030;48.126;7.816;2024-03-25T02:00:24;4.97;;;1.77;;
79566;SDS011;69030;48.126;7.816;2024-03-25T02:02:49;3.88;;;1.88;;
79566;SDS011;69030;48.126;7.816;2024-03-25T02:05:16;5.72;;;1.20;;
79566;SDS011;69030;48.126;7.816;2024-03-25T02:07:46;2.13;;;1.17;;
79566;SDS011;69030;48.126;7.816;2024-03-25T02:10:12;5.03;;;1.45;;
79566;SDS011;69030;48.126;7.816;2024-03-25T02:12:42;4.05;;;1.45;;
79566;SDS011;69030;48.126;7.816;2024-03-25T02:15:08;4.72;;;1.38;;
79566;SDS011;69030;48.126;7.816;2024-03-25T02:17:34;3.92;;;1.65;;
79566;SDS011;69030;48.126;7.816;2024-03-25T02:20:01;2.08;;;1.40;;
79566;SDS011;69030;48.126;7.816;2024-03-25T02:22:37;4.45;;;1.42;;
79566;SDS011;69030;48.126;7.816;2024-03-25T02:27:32;5.25;;;1.30;;
79566;SDS011;69030;48.126;7.816;2024-03-25T02:30:02;2.50;;;1.42;;
79566;SDS011;69030;48.126;7.816;2024-03-25T02:32:30;3.13;;;2.30;;
79566;SDS011;69030;48.126;7.816;2024-03-25T02:34:56;3.47;;;1.73;;
79566;SDS011;69030;48.126;7.816;2024-03-25T02:37:22;6.15;;;2.13;;
79566;SDS011;69030;48.126;7.816;2024-03-25T02:39:47;3.67;;;2.13;;
79566;SDS011;69030;48.126;7.816;2024-03-25T02:42:13;4.05;;;2.38;;
79566;SDS011;69030;48.126;7.816;2024-03-25T02:44:38;3.22;;;1.33;;
79566;SDS011;69030;48.126;7.816;2024-03-25T02:47:08;3.63;;;3.33;;
79566;SDS011;69030;48.126;7.816;2024-03-25T02:49:35;2.00;;;1.15;;
79566;SDS011;69030;48.126;7.816;2024-03-25T02:52:00;2.13;;;1.38;;
79566;SDS011;69030;48.126;7.816;2024-03-25T02:54:26;4.28;;;1.98;;
79566;SDS011;69030;48.126;7.816;2024-03-25T02:56:52;5.10;;;1.55;;
79566;SDS011;69030;48.126;7.816;2024-03-25T02:59:17;2.53;;;1.58;;
79566;SDS011;69030;48.126;7.816;2024-03-25T03:01:45;4.07;;;1.15;;
79566;SDS011;69030;48.126;7.816;2024-03-25T03:04:11;4.20;;;1.38;;
79566;SDS011;69030;48.126;7.816;2024-03-25T03:06:36;4.32;;;1.42;;
79566;SDS011;69030;48.126;7.816;2024-03-25T03:09:02;3.30;;;1.75;;
79566;SDS011;69030;48.126;7.816;2024-03-25T03:11:27;2.63;;;1.67;;
79566;SDS011;69030;48.126;7.816;2024-03-25T03:13:53;2.38;;;1.55;;
79566;SDS011;69030;48.126;7.816;2024-03-25T03:18:46;3.10;;;1.25;;
79566;SDS011;69030;48.126;7.816;2024-03-25T03:21:12;3.03;;;1.58;;
79566;SDS011;69030;48.126;7.816;2024-03-25T03:23:38;4.68;;;2.13;;
79566;SDS011;69030;48.126;7.816;2024-03-25T03:26:04;2.83;;;1.45;;
79566;SDS011;69030;48.126;7.816;2024-03-25T03:28:30;2.22;;;1.40;;
79566;SDS011;69030;48.126;7.816;2024-03-25T03:30:56;3.40;;;1.33;;
79566;SDS011;69030;48.126;7.816;2024-03-25T03:33:21;4.13;;;2.47;;
79566;SDS011;69030;48.126;7.816;2024-03-25T03:35:49;3.60;;;1.60;;
79566;SDS011;69030;48.126;7.816;2024-03-25T03:38:14;3.63;;;1.13;;
79566;SDS011;69030;48.126;7.816;2024-03-25T03:40:39;5.35;;;1.55;;
79566;SDS011;69030;48.126;7.816;2024-03-25T03:43:05;6.55;;;1.38;;
79566;SDS011;69030;48.126;7.816;2024-03-25T03:45:32;3.42;;;1.45;;
79566;SDS011;69030;48.126;7.816;2024-03-25T03:47:59;3.38;;;1.52;;
79566;SDS011;69030;48.126;7.816;2024-03-25T03:50:24;4.70;;;1.35;;
79566;SDS011;69030;48.126;7.816;2024-03-25T03:52:49;3.55;;;1.60;;
79566;SDS011;69030;48.126;7.816;2024-03-25T03:55:15;3.33;;;1.67;;
79566;SDS011;69030;48.126;7.816;2024-03-25T03:57:40;3.42;;;1.90;;
79566;SDS011;69030;48.126;7.816;2024-03-25T04:00:08;2.78;;;1.27;;
79566;SDS011;69030;48.126;7.816;2024-03-25T04:02:34;3.83;;;1.73;;
79566;SDS011;69030;48.126;7.816;2024-03-25T04:04:59;2.47;;;2.00;;
79566;SDS011;69030;48.126;7.816;2024-03-25T04:07:25;2.33;;;1.13;;
79566;SDS011;69030;48.126;7.816;2024-03-25T04:09:54;3.67;;;2.00;;
79566;SDS011;69030;48.126;7.816;2024-03-25T04:14:48;3.08;;;2.70;;
79566;SDS011;69030;48.126;7.816;2024-03-25T04:17:19;4.00;;;2.10;;
79566;SDS011;69030;48.126;7.816;2024-03-25T04:19:45;5.22;;;1.50;;
79566;SDS011;69030;48.126;7.816;2024-03-25T04:22:10;2.88;;;1.70;;
79566;SDS011;69030;48.126;7.816;2024-03-25T04:24:36;5.18;;;1.23;;
79566;SDS011;69030;48.126;7.816;2024-03-25T04:27:01;3.10;;;1.35;;
79566;SDS011;69030;48.126;7.816;2024-03-25T04:29:26;2.70;;;1.48;;
79566;SDS011;69030;48.126;7.816;2024-03-25T04:31:52;4.15;;;1.52;;
79566;SDS011;69030;48.126;7.816;2024-03-25T04:34:17;3.60;;;1.55;;
79566;SDS011;69030;48.126;7.816;2024-03-25T04:36:42;3.92;;;1.33;;
79566;SDS011;69030;48.126;7.816;2024-03-25T04:39:08;4.18;;;1.73;;
79566;SDS011;69030;48.126;7.816;2024-03-25T04:41:33;5.88;;;1.98;;
79566;SDS011;69030;48.126;7.816;2024-03-25T04:43:59;3.92;;;1.60;;
79566;SDS011;69030;48.126;7.816;2024-03-25T04:46:24;3.30;;;2.63;;
79566;SDS011;69030;48.126;7.816;2024-03-25T04:48:49;2.40;;;1.23;;
79566;SDS011;69030;48.126;7.816;2024-03-25T04:51:15;2.97;;;1.15;;
79566;SDS011;69030;48.126;7.816;2024-03-25T04:53:40;3.58;;;1.38;;
79566;SDS011;69030;48.126;7.816;2024-03-25T04:56:06;4.50;;;1.73;;
79566;SDS011;69030;48.126;7.816;2024-03-25T04:58:34;3.50;;;1.48;;
79566;SDS011;69030;48.126;7.816;2024-03-25T05:01:00;2.60;;;1.48;;
79566;SDS011;69030;48.126;7.816;2024-03-25T05:03:26;4.50;;;1.42;;
79566;SDS011;69030;48.126;7.816;2024-03-25T05:05:51;2.72;;;1.73;;
79566;SDS011;69030;48.126;7.816;2024-03-25T05:08:17;4.18;;;1.80;;
79566;SDS011;69030;48.126;7.816;2024-03-25T05:10:42;4.43;;;1.63;;
79566;SDS011;69030;48.126;7.816;2024-03-25T05:13:07;5.00;;;1.90;;
79566;SDS011;69030;48.126;7.816;2024-03-25T05:15:33;3.60;;;1.65;;
79566;SDS011;69030;48.126;7.816;2024-03-25T05:18:00;3.78;;;2.25;;
79566;SDS011;69030;48.126;7.816;2024-03-25T05:20:25;3.90;;;1.85;;
79566;SDS011;69030;48.126;7.816;2024-03-25T05:22:52;4.00;;;2.15;;
79566;SDS011;69030;48.126;7.816;2024-03-25T05:25:17;4.40;;;2.40;;
79566;SDS011;69030;48.126;7.816;2024-03-25T05:27:42;2.85;;;1.50;;
79566;SDS011;69030;48.126;7.816;2024-03-25T05:30:08;3.95;;;1.58;;
79566;SDS011;69030;48.126;7.816;2024-03-25T05:32:33;6.10;;;1.35;;
79566;SDS011;69030;48.126;7.816;2024-03-25T05:34:59;2.15;;;1.55;;
79566;SDS011;69030;48.126;7.816;2024-03-25T05:37:28;3.72;;;1.95;;
79566;SDS011;69030;48.126;7.816;2024-03-25T05:39:57;3.40;;;2.03;;
79566;SDS011;69030;48.126;7.816;2024-03-25T05:42:24;6.68;;;3.03;;
79566;SDS011;69030;48.126;7.816;2024-03-25T05:44:50;3.83;;;1.92;;
79566;SDS011;69030;48.126;7.816;2024-03-25T05:47:15;3.33;;;1.77;;
79566;SDS011;69030;48.126;7.816;2024-03-25T05:49:41;5.75;;;2.05;;
79566;SDS011;69030;48.126;7.816;2024-03-25T05:52:06;3.78;;;1.75;;
79566;SDS011;69030;48.126;7.816;2024-03-25T05:54:32;5.22;;;2.05;;
79566;SDS011;69030;48.126;7.816;2024-03-25T05:56:57;4.57;;;1.60;;
79566;SDS011;69030;48.126;7.816;2024-03-25T05:59:23;6.63;;;2.25;;
79566;SDS011;69030;48.126;7.816;2024-03-25T06:01:48;4.95;;;3.47;;
79566;SDS011;69030;48.126;7.816;2024-03-25T06:04:13;3.85;;;2.35;;
79566;SDS011;69030;48.126;7.816;2024-03-25T06:06:39;5.93;;;3.08;;
79566;SDS011;69030;48.126;7.816;2024-03-25T06:09:04;3.38;;;2.17;;
79566;SDS011;69030;48.126;7.816;2024-03-25T06:11:30;4.68;;;3.38;;
79566;SDS011;69030;48.126;7.816;2024-03-25T06:13:58;4.80;;;2.30;;
79566;SDS011;69030;48.126;7.816;2024-03-25T06:16:23;6.30;;;2.75;;
79566;SDS011;69030;48.126;7.816;2024-03-25T06:18:49;5.22;;;3.30;;
79566;SDS011;69030;48.126;7.816;2024-03-25T06:21:16;4.80;;;2.55;;
79566;SDS011;69030;48.126;7.816;2024-03-25T06:23:41;8.95;;;2.55;;
79566;SDS011;69030;48.126;7.816;2024-03-25T06:26:06;3.08;;;1.98;;
79566;SDS011;69030;48.126;7.816;2024-03-25T06:28:32;1.83;;;1.10;;
79566;SDS011;69030;48.126;7.816;2024-03-25T06:30:57;2.25;;;1.92;;
79566;SDS011;69030;48.126;7.816;2024-03-25T06:33:41;4.43;;;3.47;;
79566;SDS011;69030;48.126;7.816;2024-03-25T06:36:39;4.38;;;3.67;;
79566;SDS011;69030;48.126;7.816;2024-03-25T06:39:04;3.42;;;1.55;;
79566;SDS011;69030;48.126;7.816;2024-03-25T06:41:31;1.73;;;1.25;;
79566;SDS011;69030;48.126;7.816;2024-03-25T06:43:57;2.70;;;1.63;;
79566;SDS011;69030;48.126;7.816;2024-03-25T06:46:23;2.95;;;1.42;;
79566;SDS011;69030;48.126;7.816;2024-03-25T06:48:48;4.00;;;1.30;;
79566;SDS011;69030;48.126;7.816;2024-03-25T06:51:13;3.58;;;2.13;;
79566;SDS011;69030;48.126;7.816;2024-03-25T06:53:39;4.18;;;2.45;;
79566;SDS011;69030;48.126;7.816;2024-03-25T06:56:04;2.60;;;1.17;;
79566;SDS011;69030;48.126;7.816;2024-03-25T06:58:29;2.50;;;1.70;;
79566;SDS011;69030;48.126;7.816;2024-03-25T07:00:56;4.88;;;2.00;;
79566;SDS011;69030;48.126;7.816;2024-03-25T07:03:23;3.75;;;2.10;;
79566;SDS011;69030;48.126;7.816;2024-03-25T07:05:49;4.32;;;2.10;;
79566;SDS011;69030;48.126;7.816;2024-03-25T07:08:20;3.50;;;1.10;;
79566;SDS011;69030;48.126;7.816;2024-03-25T07:10:46;2.63;;;0.98;;
79566;SDS011;69030;48.126;7.816;2024-03-25T07:13:11;2.35;;;1.10;;
79566;SDS011;69030;48.126;7.816;2024-03-25T07:15:37;2.78;;;1.35;;
79566;SDS011;69030;48.126;7.816;2024-03-25T07:18:03;1.58;;;1.15;;
79566;SDS011;69030;48.126;7.816;2024-03-25T07:20:29;4.30;;;1.25;;
79566;SDS011;69030;48.126;7.816;2024-03-25T07:22:54;3.58;;;1.42;;
79566;SDS011;69030;48.126;7.816;2024-03-25T07:25:20;4.53;;;1.80;;
79566;SDS011;69030;48.126;7.816;2024-03-25T07:27:46;3.80;;;1.98;;
79566;SDS011;69030;48.126;7.816;2024-03-25T07:30:12;3.20;;;1.13;;
79566;SDS011;69030;48.126;7.816;2024-03-25T07:32:37;4.93;;;1.38;;
79566;SDS011;69030;48.126;7.816;2024-03-25T07:35:03;2.70;;;0.88;;
79566;SDS011;69030;48.126;7.816;2024-03-25T07:37:29;2.28;;;1.33;;
79566;SDS011;69030;48.126;7.816;2024-03-25T07:39:55;1.73;;;1.05;;
79566;SDS011;69030;48.126;7.816;2024-03-25T07:42:21;2.75;;;1.10;;
79566;SDS011;69030;48.126;7.816;2024-03-25T07:44:46;1.90;;;1.13;;
79566;SDS011;69030;48.126;7.816;2024-03-25T07:47:12;4.03;;;1.30;;
79566;SDS011;69030;48.126;7.816;2024-03-25T07:49:37;2.15;;;0.75;;
79566;SDS011;69030;48.126;7.816;2024-03-25T07:52:05;2.72;;;1.23;;
79566;SDS011;69030;48.126;7.816;2024-03-25T07:54:30;2.15;;;0.73;;
79566;SDS011;69030;48.126;7.816;2024-03-25T07:56:56;2.67;;;1.02;;
79566;SDS011;69030;48.126;7.816;2024-03-25T07:59:21;2.28;;;1.30;;
79566;SDS011;69030;48.126;7.816;2024-03-25T08:01:46;1.63;;;1.33;;
79566;SDS011;69030;48.126;7.816;2024-03-25T08:04:12;2.33;;;0.73;;
79566;SDS011;69030;48.126;7.816;2024-03-25T08:06:37;1.92;;;0.65;;
79566;SDS011;69030;48.126;7.816;2024-03-25T08:09:03;2.60;;;1.58;;
79566;SDS011;69030;48.126;7.816;2024-03-25T08:11:30;1.58;;;1.08;;
79566;SDS011;69030;48.126;7.816;2024-03-25T08:13:56;3.03;;;0.93;;
79566;SDS011;69030;48.126;7.816;2024-03-25T08:16:21;3.65;;;0.90;;
79566;SDS011;69030;48.126;7.816;2024-03-25T08:18:47;2.20;;;0.82;;
79566;SDS011;69030;48.126;7.816;2024-03-25T08:21:12;1.42;;;0.60;;
79566;SDS011;69030;48.126;7.816;2024-03-25T08:23:38;5.53;;;1.38;;
79566;SDS011;69030;48.126;7.816;2024-03-25T08:26:03;1.25;;;0.65;;
79566;SDS011;69030;48.126;7.816;2024-03-25T08:28:28;4.50;;;1.02;;
79566;SDS011;69030;48.126;7.816;2024-03-25T08:30:54;3.58;;;1.58;;
79566;SDS011;69030;48.126;7.816;2024-03-25T08:33:19;3.33;;;1.27;;
79566;SDS011;69030;48.126;7.816;2024-03-25T08:35:44;1.88;;;1.13;;
79566;SDS011;69030;48.126;7.816;2024-03-25T08:38:10;2.00;;;0.93;;
79566;SDS011;69030;48.126;7.816;2024-03-25T08:40:35;3.45;;;0.77;;
79566;SDS011;69030;48.126;7.816;2024-03-25T08:43:00;4.10;;;0.65;;
79566;SDS011;69030;48.126;7.816;2024-03-25T08:45:26;3.33;;;1.02;;
79566;SDS011;69030;48.126;7.816;2024-03-25T08:47:51;2.35;;;0.95;;
79566;SDS011;69030;48.126;7.816;2024-03-25T08:50:17;5.15;;;0.80;;
79566;SDS011;69030;48.126;7.816;2024-03-25T08:52:43;1.98;;;1.17;;
79566;SDS011;69030;48.126;7.816;2024-03-25T08:55:08;1.30;;;0.93;;
79566;SDS011;69030;48.126;7.816;2024-03-25T08:57:34;5.32;;;2.33;;
79566;SDS011;69030;48.126;7.816;2024-03-25T08:59:59;3.17;;;1.13;;
79566;SDS011;69030;48.126;7.816;2024-03-25T09:02:25;4.05;;;1.10;;
79566;SDS011;69030;48.126;7.816;2024-03-25T09:04:50;2.70;;;0.60;;
79566;SDS011;69030;48.126;7.816;2024-03-25T09:07:16;5.35;;;1.77;;
79566;SDS011;69030;48.126;7.816;2024-03-25T09:09:42;1.80;;;0.68;;
79566;SDS011;69030;48.126;7.816;2024-03-25T09:12:26;4.10;;;0.85;;
79566;SDS011;69030;48.126;7.816;2024-03-25T09:14:51;3.17;;;1.20;;
79566;SDS011;69030;48.126;7.816;2024-03-25T09:17:17;3.10;;;0.88;;
79566;SDS011;69030;48.126;7.816;2024-03-25T09:19:42;2.03;;;0.98;;
79566;SDS011;69030;48.126;7.816;2024-03-25T09:22:08;3.28;;;1.10;;
79566;SDS011;69030;48.126;7.816;2024-03-25T09:24:34;2.63;;;1.23;;
79566;SDS011;69030;48.126;7.816;2024-03-25T09:26:59;3.67;;;1.08;;
79566;SDS011;69030;48.126;7.816;2024-03-25T09:29:25;3.65;;;0.98;;
79566;SDS011;69030;48.126;7.816;2024-03-25T09:31:50;3.05;;;1.00;;
79566;SDS011;69030;48.126;7.816;2024-03-25T09:34:15;5.28;;;1.02;;
79566;SDS011;69030;48.126;7.816;2024-03-25T09:36:41;3.80;;;1.00;;
79566;SDS011;69030;48.126;7.816;2024-03-25T09:39:06;3.88;;;1.50;;
79566;SDS011;69030;48.126;7.816;2024-03-25T09:41:32;2.17;;;1.05;;
79566;SDS011;69030;48.126;7.816;2024-03-25T09:44:01;1.30;;;0.85;;
79566;SDS011;69030;48.126;7.816;2024-03-25T09:46:31;1.23;;;0.77;;
79566;SDS011;69030;48.126;7.816;2024-03-25T09:48:58;3.08;;;1.73;;
79566;SDS011;69030;48.126;7.816;2024-03-25T09:51:23;3.03;;;0.73;;
79566;SDS011;69030;48.126;7.816;2024-03-25T09:53:49;6.07;;;1.17;;
79566;SDS011;69030;48.126;7.816;2024-03-25T09:56:14;0.90;;;0.52;;
79566;SDS011;69030;48.126;7.816;2024-03-25T09:58:40;1.63;;;0.50;;
79566;SDS011;69030;48.126;7.816;2024-03-25T10:01:05;0.63;;;0.40;;
79566;SDS011;69030;48.126;7.816;2024-03-25T10:03:31;2.28;;;0.93;;
79566;SDS011;69030;48.126;7.816;2024-03-25T10:05:56;2.10;;;2.00;;
79566;SDS011;69030;48.126;7.816;2024-03-25T10:08:22;3.17;;;0.82;;
79566;SDS011;69030;48.126;7.816;2024-03-25T10:10:47;1.70;;;0.60;;
79566;SDS011;69030;48.126;7.816;2024-03-25T10:13:13;3.15;;;0.70;;
79566;SDS011;69030;48.126;7.816;2024-03-25T10:15:40;0.55;;;0.38;;
79566;SDS011;69030;48.126;7.816;2024-03-25T10:18:06;1.55;;;0.65;;
79566;SDS011;69030;48.126;7.816;2024-03-25T10:20:31;2.72;;;0.52;;
79566;SDS011;69030;48.126;7.816;2024-03-25T10:22:57;2.00;;;0.70;;
79566;SDS011;69030;48.126;7.816;2024-03-25T10:30:23;2.05;;;0.40;;
79566;SDS011;69030;48.126;7.816;2024-03-25T10:35:28;2.42;;;0.75;;
79566;SDS011;69030;48.126;7.816;2024-03-25T10:37:55;2.25;;;0.35;;
79566;SDS011;69030;48.126;7.816;2024-03-25T10:40:26;1.60;;;0.57;;
79566;SDS011;69030;48.126;7.816;2024-03-25T10:43:05;1.10;;;0.68;;
79566;SDS011;69030;48.126;7.816;2024-03-25T10:45:40;1.55;;;0.32;;
79566;SDS011;69030;48.126;7.816;2024-03-25T10:48:19;0.65;;;0.57;;
79566;SDS011;69030;48.126;7.816;2024-03-25T10:50:45;0.85;;;0.45;;
79566;SDS011;69030;48.126;7.816;2024-03-25T10:53:11;2.75;;;0.77;;
79566;SDS011;69030;48.126;7.816;2024-03-25T10:55:37;3.25;;;0.52;;
79566;SDS011;69030;48.126;7.816;2024-03-25T10:58:05;3.35;;;0.70;;
79566;SDS011;69030;48.126;7.816;2024-03-25T11:00:32;1.27;;;0.45;;
79566;SDS011;69030;48.126;7.816;2024-03-25T11:02:59;0.98;;;0.60;;
79566;SDS011;69030;48.126;7.816;2024-03-25T11:05:24;1.05;;;0.60;;
79566;SDS011;69030;48.126;7.816;2024-03-25T11:07:50;1.08;;;0.43;;
79566;SDS011;69030;48.126;7.816;2024-03-25T11:10:16;1.30;;;0.85;;
79566;SDS011;69030;48.126;7.816;2024-03-25T11:12:41;1.80;;;1.70;;
79566;SDS011;69030;48.126;7.816;2024-03-25T11:15:08;3.28;;;0.68;;
79566;SDS011;69030;48.126;7.816;2024-03-25T11:17:34;1.92;;;0.95;;
79566;SDS011;69030;48.126;7.816;2024-03-25T11:20:06;0.90;;;0.70;;
79566;SDS011;69030;48.126;7.816;2024-03-25T11:22:35;3.33;;;1.63;;
79566;SDS011;69030;48.126;7.816;2024-03-25T11:25:07;2.10;;;0.68;;
79566;SDS011;69030;48.126;7.816;2024-03-25T11:27:36;1.13;;;0.77;;
79566;SDS011;69030;48.126;7.816;2024-03-25T11:30:02;2.55;;;0.93;;
79566;SDS011;69030;48.126;7.816;2024-03-25T11:32:40;0.73;;;0.63;;
79566;SDS011;69030;48.126;7.816;2024-03-25T11:35:08;3.47;;;0.50;;
79566;SDS011;69030;48.126;7.816;2024-03-25T11:37:38;1.50;;;1.40;;
79566;SDS011;69030;48.126;7.816;2024-03-25T11:40:07;1.30;;;0.52;;
79566;SDS011;69030;48.126;7.816;2024-03-25T11:42:37;1.80;;;0.68;;
79566;SDS011;69030;48.126;7.816;2024-03-25T11:45:03;1.55;;;0.60;;
79566;SDS011;69030;48.126;7.816;2024-03-25T11:47:30;1.38;;;0.50;;
79566;SDS011;69030;48.126;7.816;2024-03-25T11:49:56;1.55;;;0.50;;
79566;SDS011;69030;48.126;7.816;2024-03-25T11:52:21;3.20;;;0.60;;
79566;SDS011;69030;48.126;7.816;2024-03-25T11:54:53;0.63;;;0.40;;
79566;SDS011;69030;48.126;7.816;2024-03-25T11:57:19;2.22;;;1.67;;
79566;SDS011;69030;48.126;7.816;2024-03-25T11:59:45;2.72;;;0.47;;
79566;SDS011;69030;48.126;7.816;2024-03-25T12:02:13;1.27;;;0.40;;
79566;SDS011;69030;48.126;7.816;2024-03-25T12:04:41;1.70;;;0.52;;
79566;SDS011;69030;48.126;7.816;2024-03-25T12:07:08;1.10;;;0.68;;
79566;SDS011;69030;48.126;7.816;2024-03-25T12:09:34;1.35;;;0.43;;
79566;SDS011;69030;48.126;7.816;2024-03-25T12:12:18;1.25;;;0.50;;
79566;SDS011;69030;48.126;7.816;2024-03-25T12:14:44;2.75;;;0.60;;
79566;SDS011;69030;48.126;7.816;2024-03-25T12:17:09;1.38;;;0.85;;
79566;SDS011;69030;48.126;7.816;2024-03-25T12:19:35;1.65;;;0.52;;
79566;SDS011;69030;48.126;7.816;2024-03-25T12:22:00;0.82;;;0.52;;
79566;SDS011;69030;48.126;7.816;2024-03-25T12:24:26;1.60;;;1.08;;
79566;SDS011;69030;48.126;7.816;2024-03-25T12:26:52;1.08;;;0.30;;
79566;SDS011;69030;48.126;7.816;2024-03-25T12:29:17;2.22;;;0.30;;
79566;SDS011;69030;48.126;7.816;2024-03-25T12:34:17;1.58;;;1.08;;
79566;SDS011;69030;48.126;7.816;2024-03-25T12:36:42;2.85;;;0.68;;
79566;SDS011;69030;48.126;7.816;2024-03-25T12:39:14;2.10;;;0.60;;
79566;SDS011;69030;48.126;7.816;2024-03-25T12:41:41;3.33;;;0.75;;
79566;SDS011;69030;48.126;7.816;2024-03-25T12:44:07;1.30;;;0.55;;
79566;SDS011;69030;48.126;7.816;2024-03-25T12:46:33;1.02;;;0.47;;
79566;SDS011;69030;48.126;7.816;2024-03-25T12:48:59;1.95;;;0.35;;
79566;SDS011;69030;48.126;7.816;2024-03-25T12:51:24;1.30;;;0.50;;
79566;SDS011;69030;48.126;7.816;2024-03-25T12:53:50;1.20;;;0.52;;
79566;SDS011;69030;48.126;7.816;2024-03-25T12:56:16;1.02;;;0.60;;
79566;SDS011;69030;48.126;7.816;2024-03-25T12:58:42;0.70;;;0.32;;
79566;SDS011;69030;48.126;7.816;2024-03-25T13:01:20;2.03;;;0.55;;
79566;SDS011;69030;48.126;7.816;2024-03-25T13:03:47;2.40;;;0.70;;
79566;SDS011;69030;48.126;7.816;2024-03-25T13:06:12;1.42;;;0.63;;
79566;SDS011;69030;48.126;7.816;2024-03-25T13:08:38;1.60;;;0.40;;
79566;SDS011;69030;48.126;7.816;2024-03-25T13:11:03;1.48;;;0.57;;
79566;SDS011;69030;48.126;7.816;2024-03-25T13:13:32;0.80;;;0.57;;
79566;SDS011;69030;48.126;7.816;2024-03-25T13:15:58;1.02;;;0.30;;
79566;SDS011;69030;48.126;7.816;2024-03-25T13:18:23;3.90;;;1.08;;
79566;SDS011;69030;48.126;7.816;2024-03-25T13:20:49;1.73;;;0.80;;
79566;SDS011;69030;48.126;7.816;2024-03-25T13:23:15;1.90;;;1.30;;
79566;SDS011;69030;48.126;7.816;2024-03-25T13:25:41;1.42;;;0.80;;
79566;SDS011;69030;48.126;7.816;2024-03-25T13:28:06;1.70;;;0.90;;
79566;SDS011;69030;48.126;7.816;2024-03-25T13:30:32;2.25;;;0.63;;
79566;SDS011;69030;48.126;7.816;2024-03-25T13:32:58;2.67;;;0.47;;
79566;SDS011;69030;48.126;7.816;2024-03-25T13:35:23;2.85;;;0.63;;
79566;SDS011;69030;48.126;7.816;2024-03-25T13:37:49;2.45;;;1.17;;
79566;SDS011;69030;48.126;7.816;2024-03-25T13:40:14;0.98;;;0.82;;
79566;SDS011;69030;48.126;7.816;2024-03-25T13:42:40;1.00;;;0.50;;
79566;SDS011;69030;48.126;7.816;2024-03-25T13:45:05;2.28;;;0.32;;
79566;SDS011;69030;48.126;7.816;2024-03-25T13:47:31;2.33;;;1.27;;
79566;SDS011;69030;48.126;7.816;2024-03-25T13:50:06;0.63;;;0.45;;
79566;SDS011;69030;48.126;7.816;2024-03-25T13:52:32;1.35;;;1.25;;
79566;SDS011;69030;48.126;7.816;2024-03-25T13:54:58;1.17;;;0.35;;
79566;SDS011;69030;48.126;7.816;2024-03-25T13:57:23;1.58;;;0.55;;
79566;SDS011;69030;48.126;7.816;2024-03-25T13:59:50;1.33;;;1.17;;
79566;SDS011;69030;48.126;7.816;2024-03-25T14:02:15;1.85;;;0.65;;
79566;SDS011;69030;48.126;7.816;2024-03-25T14:04:41;2.22;;;0.50;;
79566;SDS011;69030;48.126;7.816;2024-03-25T14:07:06;0.73;;;0.47;;
79566;SDS011;69030;48.126;7.816;2024-03-25T14:09:31;1.13;;;0.45;;
79566;SDS011;69030;48.126;7.816;2024-03-25T14:11:57;0.82;;;0.50;;
79566;SDS011;69030;48.126;7.816;2024-03-25T14:14:22;1.00;;;0.20;;
79566;SDS011;69030;48.126;7.816;2024-03-25T14:16:47;0.82;;;0.40;;
79566;SDS011;69030;48.126;7.816;2024-03-25T14:19:13;1.52;;;0.47;;
79566;SDS011;69030;48.126;7.816;2024-03-25T14:21:38;0.93;;;0.68;;
79566;SDS011;69030;48.126;7.816;2024-03-25T14:24:04;0.90;;;0.40;;
79566;SDS011;69030;48.126;7.816;2024-03-25T14:26:31;1.85;;;0.20;;
79566;SDS011;69030;48.126;7.816;2024-03-25T14:28:56;1.90;;;0.63;;
79566;SDS011;69030;48.126;7.816;2024-03-25T14:31:22;1.35;;;0.75;;
79566;SDS011;69030;48.126;7.816;2024-03-25T14:33:47;0.75;;;0.30;;
79566;SDS011;69030;48.126;7.816;2024-03-25T14:36:13;1.48;;;0.52;;
79566;SDS011;69030;48.126;7.816;2024-03-25T14:38:38;1.33;;;0.65;;
79566;SDS011;69030;48.126;7.816;2024-03-25T14:41:04;1.48;;;0.50;;
79566;SDS011;69030;48.126;7.816;2024-03-25T14:43:30;1.77;;;0.55;;
79566;SDS011;69030;48.126;7.816;2024-03-25T14:45:55;0.98;;;0.45;;
79566;SDS011;69030;48.126;7.816;2024-03-25T14:48:21;1.42;;;0.35;;
79566;SDS011;69030;48.126;7.816;2024-03-25T14:50:46;1.38;;;0.38;;
79566;SDS011;69030;48.126;7.816;2024-03-25T14:53:12;1.30;;;0.43;;
79566;SDS011;69030;48.126;7.816;2024-03-25T14:55:41;0.73;;;0.50;;
79566;SDS011;69030;48.126;7.816;2024-03-25T14:58:07;1.52;;;0.75;;
79566;SDS011;69030;48.126;7.816;2024-03-25T15:00:32;2.15;;;0.50;;
79566;SDS011;69030;48.126;7.816;2024-03-25T15:02:58;0.38;;;0.22;;